Time;durP1;ratioP1;P1;durP2;ratioP2;P2;SDS_P1;SDS_P2;PMS_P1;PMS_P2;Temp;Humidity;BMP_temperature;BMP_pressure;BME280_temperature;BME280_humidity;BME280_pressure;Samples;Min_cycle;Max_cycle;Signal;HPM_P1;HPM_P2
2022/10/02 00:02:24;;;;;;;;;3.25;2.00;;;;;16.74;69.02;101080.69;5106634;27;45406;-82
2022/10/02 00:05:25;;;;;;;;;3.50;3.00;;;;;16.73;69.69;101086.94;5115770;27;45466;-80
2022/10/02 00:07:56;;;;;;;;;5.00;2.25;;;;;16.58;70.06;101059.91;5118446;27;45437;-81
2022/10/02 00:10:28;;;;;;;;;3.00;2.00;;;;;16.69;70.30;101086.19;5105832;27;45556;-82
2022/10/02 00:12:59;;;;;;;;;2.50;1.50;;;;;16.66;70.78;101086.31;5098327;27;45498;-81
2022/10/02 00:15:30;;;;;;;;;2.25;2.00;;;;;16.47;70.73;101051.44;5078068;27;45736;-81
2022/10/02 00:18:06;;;;;;;;;1.00;1.00;;;;;16.70;70.98;101087.91;5096100;27;45455;-81
2022/10/02 00:20:45;;;;;;;;;1.50;1.50;;;;;16.68;71.19;101084.44;5107955;27;45430;-81
2022/10/02 00:23:42;;;;;;;;;2.50;2.00;;;;;16.56;71.41;101068.91;5114257;27;45707;-81
2022/10/02 00:26:20;;;;;;;;;3.00;2.00;;;;;16.67;72.12;101085.38;5095484;27;46481;-81
2022/10/02 00:29:04;;;;;;;;;1.75;1.75;;;;;16.67;72.12;101090.69;5077377;27;45778;-82
2022/10/02 00:31:43;;;;;;;;;3.00;1.50;;;;;16.68;71.90;101097.78;5115422;27;45370;-78
2022/10/02 00:34:22;;;;;;;;;5.50;3.00;;;;;16.62;72.11;101074.88;5116115;27;45366;-78
2022/10/02 00:37:00;;;;;;;;;1.00;1.00;;;;;16.65;72.30;101080.09;5100256;27;46302;-78
2022/10/02 00:39:46;;;;;;;;;4.75;2.00;;;;;16.66;72.73;101089.84;5092615;27;45440;-78
2022/10/02 00:42:18;;;;;;;;;2.75;2.00;;;;;16.68;72.46;101092.47;5083566;27;45373;-78
2022/10/02 00:45:31;;;;;;;;;3.50;2.25;;;;;16.65;72.86;101095.25;5074033;28;45566;-78
2022/10/02 00:48:17;;;;;;;;;1.25;1.25;;;;;16.61;72.99;101083.81;5066081;27;46067;-78
2022/10/02 00:50:55;;;;;;;;;3.50;1.25;;;;;16.54;73.03;101079.63;5094584;27;45527;-79
2022/10/02 00:53:50;;;;;;;;;0.00;0.00;;;;;16.42;73.55;101062.28;5095619;27;45414;-79
2022/10/02 00:56:27;;;;;;;;;1.00;1.00;;;;;16.68;73.77;101111.13;5094799;27;45465;-79
2022/10/02 00:59:23;;;;;;;;;3.00;1.25;;;;;16.62;73.87;101100.69;5093825;27;47024;-78
2022/10/02 01:02:00;;;;;;;;;1.75;1.75;;;;;16.60;74.08;101097.22;5074472;28;45513;-78
2022/10/02 01:04:37;;;;;;;;;1.75;1.75;;;;;16.66;74.49;101105.00;5074373;28;45327;-78
2022/10/02 01:07:09;;;;;;;;;1.75;1.75;;;;;16.64;74.68;101101.50;5074172;28;45483;-79
2022/10/02 01:09:36;;;;;;;;;3.00;1.50;;;;;16.63;74.93;101097.97;5093533;27;46519;-79
2022/10/02 01:12:02;;;;;;;;;2.75;2.75;;;;;16.47;75.65;101073.66;5101789;27;45367;-78
2022/10/02 01:14:36;;;;;;;;;1.00;1.00;;;;;16.64;76.36;101098.81;5115527;27;45478;-79
2022/10/02 01:17:02;;;;;;;;;2.50;2.25;;;;;16.65;76.31;101097.91;5096620;27;45390;-78
2022/10/02 01:19:37;;;;;;;;;1.25;1.25;;;;;16.65;76.99;101097.91;5120518;27;47036;-78
2022/10/02 01:22:16;;;;;;;;;2.00;2.00;;;;;16.60;77.00;101095.41;5122476;27;45404;-78
2022/10/02 01:24:55;;;;;;;;;1.50;1.25;;;;;16.53;77.72;101077.88;5101111;27;45531;-78
2022/10/02 01:27:22;;;;;;;;;1.00;1.00;;;;;16.61;78.12;101090.94;5094416;27;45411;-80
2022/10/02 01:29:55;;;;;;;;;1.00;1.00;;;;;16.61;78.78;101094.50;5092907;27;45428;-79
2022/10/02 01:32:24;;;;;;;;;1.00;1.00;;;;;16.63;79.13;101097.09;5098263;27;45503;-78
2022/10/02 01:34:51;;;;;;;;;1.00;1.00;;;;;16.62;79.77;101093.53;5115689;27;45463;-78
2022/10/02 01:37:16;;;;;;;;;1.00;1.00;;;;;16.55;79.83;101085.81;5115341;27;45351;-78
2022/10/02 01:39:42;;;;;;;;;2.00;2.00;;;;;16.49;80.46;101071.81;5093564;27;47462;-77
2022/10/02 01:42:08;;;;;;;;;1.75;1.75;;;;;16.63;80.20;101091.78;5094400;27;45500;-78
2022/10/02 01:44:33;;;;;;;;;1.50;1.50;;;;;16.45;80.62;101062.16;5092883;27;45384;-78
2022/10/02 01:47:09;;;;;;;;;0.75;0.75;;;;;16.59;81.09;101092.81;5094375;27;45512;-79
2022/10/02 01:49:37;;;;;;;;;2.00;2.00;;;;;16.50;81.73;101078.88;5095071;27;46389;-78
2022/10/02 01:52:18;;;;;;;;;3.00;1.25;;;;;16.57;81.80;101086.66;5097313;27;45503;-77
2022/10/02 01:54:44;;;;;;;;;0.00;0.00;;;;;16.52;81.91;101090.34;5079726;27;45336;-78
2022/10/02 01:57:22;;;;;;;;;1.00;1.00;;;;;16.52;81.86;101078.84;5098625;27;45430;-79
2022/10/02 02:00:07;;;;;;;;;0.75;0.75;;;;;16.54;82.09;101084.09;5098568;27;45509;-79
2022/10/02 02:02:56;;;;;;;;;1.00;1.00;;;;;16.53;82.18;101083.22;5095823;27;45468;-78
2022/10/02 02:05:53;;;;;;;;;1.75;1.75;;;;;16.50;82.29;101081.56;5101591;27;45474;-79
2022/10/02 02:08:45;;;;;;;;;1.50;1.50;;;;;16.49;82.44;101084.28;5101028;27;45413;-78
2022/10/02 02:11:17;;;;;;;;;2.25;1.00;;;;;16.44;82.53;101076.44;5081346;27;45492;-78
2022/10/02 02:13:45;;;;;;;;;1.00;1.00;;;;;16.50;82.62;101076.22;5079094;27;45445;-78
2022/10/02 02:16:35;;;;;;;;;3.00;2.00;;;;;16.48;83.55;101070.03;5097437;27;45439;-78
2022/10/02 02:19:29;;;;;;;;;1.50;1.50;;;;;16.48;84.21;101072.72;5097613;27;45464;-78
2022/10/02 02:22:02;;;;;;;;;1.00;1.00;;;;;16.49;84.38;101069.13;5096872;27;46383;-78
2022/10/02 02:24:36;;;;;;;;;1.00;1.00;;;;;16.48;84.87;101063.84;5095044;27;45353;-78
2022/10/02 02:27:04;;;;;;;;;1.00;1.00;;;;;16.32;85.50;101028.84;5096386;27;45514;-78
2022/10/02 02:29:33;;;;;;;;;0.75;0.75;;;;;16.47;85.53;101060.31;5096688;27;45343;-77
2022/10/02 02:32:04;;;;;;;;;2.00;2.00;;;;;16.26;85.63;101023.75;5095677;27;46467;-79
2022/10/02 02:34:44;;;;;;;;;1.00;1.00;;;;;16.42;86.22;101043.59;5093346;27;45550;-78
2022/10/02 02:37:17;;;;;;;;;2.25;1.00;;;;;16.39;86.27;101041.03;5097848;27;45310;-77
2022/10/02 02:39:53;;;;;;;;;1.00;1.00;;;;;16.44;86.55;101047.09;5096905;27;45473;-78
2022/10/02 02:42:22;;;;;;;;;2.00;2.00;;;;;16.45;86.38;101050.63;5097511;27;46212;-77
2022/10/02 02:45:03;;;;;;;;;2.00;2.00;;;;;16.39;86.59;101037.53;5096190;27;45475;-78
2022/10/02 02:47:39;;;;;;;;;1.00;1.00;;;;;16.43;87.02;101042.69;5097249;27;45408;-78
2022/10/02 02:50:15;;;;;;;;;1.00;1.00;;;;;16.19;86.41;101015.13;5097167;27;45411;-78
2022/10/02 02:53:05;;;;;;;;;2.00;1.00;;;;;16.42;86.92;101038.25;5099634;27;45357;-78
2022/10/02 02:55:38;;;;;;;;;2.00;2.00;;;;;16.36;87.13;101035.81;5090186;27;45369;-82
2022/10/02 02:58:22;;;;;;;;;2.25;2.00;;;;;16.40;87.39;101041.91;5097802;27;45341;-81
2022/10/02 03:00:47;;;;;;;;;2.75;2.00;;;;;15.77;87.52;100936.63;5097361;27;45395;-81
2022/10/02 03:03:12;;;;;;;;;1.00;1.00;;;;;16.30;87.92;101020.06;5097153;27;45872;-81
2022/10/02 03:05:43;;;;;;;;;1.00;1.00;;;;;16.40;87.86;101026.78;5093305;27;45480;-81
2022/10/02 03:08:25;;;;;;;;;1.25;1.00;;;;;16.29;87.78;101004.97;5058702;28;45478;-82
2022/10/02 03:11:10;;;;;;;;;2.00;2.00;;;;;16.40;88.18;101031.22;5081098;27;45498;-81
2022/10/02 03:13:38;;;;;;;;;1.00;1.00;;;;;16.40;88.39;101025.91;5114464;27;46100;-80
2022/10/02 03:16:34;;;;;;;;;2.00;1.75;;;;;16.42;88.30;101024.94;5112917;27;45338;-80
2022/10/02 03:19:14;;;;;;;;;1.00;1.00;;;;;16.30;88.05;101014.72;5114438;27;44839;-80
2022/10/02 03:21:47;;;;;;;;;1.00;1.00;;;;;16.44;87.93;101028.44;5105078;27;45373;-80
2022/10/02 03:24:34;;;;;;;;;1.00;1.00;;;;;16.35;88.27;101012.72;5099063;27;45371;-81
2022/10/02 03:27:07;;;;;;;;;1.00;1.00;;;;;16.40;88.53;101012.56;5100454;27;45485;-81
2022/10/02 03:29:57;;;;;;;;;1.00;1.00;;;;;16.43;88.54;101021.34;5113125;27;45423;-81
2022/10/02 03:32:25;;;;;;;;;1.25;0.25;;;;;16.44;88.65;101023.09;5115792;27;45591;-82
2022/10/02 03:34:51;;;;;;;;;2.50;1.50;;;;;16.38;88.68;101012.63;5120305;27;46169;-81
2022/10/02 03:37:18;;;;;;;;;0.25;0.25;;;;;16.26;88.87;100984.63;5099338;27;45476;-81
2022/10/02 03:39:44;;;;;;;;;1.00;1.00;;;;;16.09;88.72;100953.25;5096466;27;45813;-80
2022/10/02 03:42:12;;;;;;;;;1.00;1.00;;;;;16.47;88.50;101006.97;5097475;27;45614;-80
2022/10/02 03:44:37;;;;;;;;;1.00;1.00;;;;;15.91;89.01;100921.94;5083607;27;46331;-81
2022/10/02 03:47:02;;;;;;;;;2.50;1.00;;;;;16.18;89.05;100965.38;5078298;28;45461;-81
2022/10/02 03:49:28;;;;;;;;;1.00;0.75;;;;;16.23;89.05;100970.53;5096934;27;45446;-80
2022/10/02 03:51:53;;;;;;;;;0.50;0.50;;;;;16.44;88.93;100996.41;5097293;27;45396;-80
2022/10/02 03:54:21;;;;;;;;;1.00;1.00;;;;;16.40;88.97;100985.88;5097351;27;46060;-81
2022/10/02 03:57:01;;;;;;;;;0.00;0.00;;;;;16.50;89.36;101006.84;5097982;27;45385;-81
2022/10/02 03:59:51;;;;;;;;;0.50;0.50;;;;;16.47;89.10;101001.63;5109582;27;45454;-81
2022/10/02 04:02:33;;;;;;;;;0.25;0.25;;;;;16.55;89.41;101006.69;5062117;28;45435;-80
2022/10/02 04:05:10;;;;;;;;;0.75;0.00;;;;;16.55;89.28;101013.78;5076298;28;46227;-80
2022/10/02 04:07:43;;;;;;;;;1.00;1.00;;;;;16.54;89.23;101015.59;5057608;28;46907;-80
2022/10/02 04:10:27;;;;;;;;;0.00;0.00;;;;;16.52;89.51;101010.31;5081032;27;45500;-82
2022/10/02 04:13:01;;;;;;;;;0.00;0.00;;;;;16.40;89.46;100989.44;5097681;27;45301;-80
2022/10/02 04:15:46;;;;;;;;;1.00;1.00;;;;;16.54;89.75;101012.06;5116801;27;45639;-80
2022/10/02 04:18:28;;;;;;;;;2.00;1.00;;;;;16.55;89.19;101019.13;5098207;27;45577;-81
2022/10/02 04:21:12;;;;;;;;;0.00;0.00;;;;;16.46;88.98;101005.22;5104195;27;45431;-81
2022/10/02 04:24:05;;;;;;;;;0.00;0.00;;;;;16.58;88.88;101022.56;5096926;27;45347;-80
2022/10/02 04:26:36;;;;;;;;;0.00;0.00;;;;;16.55;88.51;101009.34;5101968;27;45556;-81
2022/10/02 04:29:27;;;;;;;;;0.00;0.00;;;;;16.60;88.84;101017.16;5091023;27;45297;-81
2022/10/02 04:32:10;;;;;;;;;0.75;0.00;;;;;16.61;88.80;101013.56;5095042;27;45433;-81
2022/10/02 04:34:36;;;;;;;;;0.00;0.00;;;;;16.58;88.81;101014.56;5096076;27;45393;-81
2022/10/02 04:37:14;;;;;;;;;0.00;0.00;;;;;16.61;88.89;101018.88;5095715;27;46740;-81
2022/10/02 04:39:48;;;;;;;;;1.00;0.00;;;;;16.60;88.96;101015.38;5094501;27;45417;-80
2022/10/02 04:42:46;;;;;;;;;0.00;0.00;;;;;16.60;89.04;101017.16;5080909;27;45364;-80
2022/10/02 04:45:37;;;;;;;;;0.00;0.00;;;;;16.61;88.63;101017.13;5026019;28;45398;-80
2022/10/02 04:48:30;;;;;;;;;0.25;0.00;;;;;16.63;88.78;101022.38;5015346;28;45423;-77
2022/10/02 04:51:17;;;;;;;;;0.00;0.00;;;;;16.63;88.28;101023.25;5031512;28;45588;-78
2022/10/02 04:53:58;;;;;;;;;0.00;0.00;;;;;16.62;88.68;101018.81;5048735;28;45497;-77
2022/10/02 04:56:50;;;;;;;;;0.00;0.00;;;;;16.58;88.28;101025.22;5031855;28;45398;-79
2022/10/02 04:59:27;;;;;;;;;0.00;0.00;;;;;16.62;88.24;101031.31;5031852;28;46008;-78
2022/10/02 05:02:08;;;;;;;;;0.00;0.00;;;;;16.62;88.16;101025.97;5032711;28;45428;-78
2022/10/02 05:04:42;;;;;;;;;0.00;0.00;;;;;16.61;87.93;101026.88;5031890;28;45578;-79
2022/10/02 05:07:26;;;;;;;;;0.00;0.00;;;;;16.59;88.00;101026.09;5015757;28;45526;-78
2022/10/02 05:10:18;;;;;;;;;0.00;0.00;;;;;16.56;87.78;101015.53;5032210;28;46131;-79
2022/10/02 05:12:47;;;;;;;;;0.00;0.00;;;;;16.57;87.78;101030.63;5041271;28;45641;-78
2022/10/02 05:15:20;;;;;;;;;0.25;0.00;;;;;16.54;87.98;101030.75;5027345;28;45472;-78
2022/10/02 05:18:02;;;;;;;;;0.00;0.00;;;;;16.51;87.36;101027.25;5037725;28;45487;-78
2022/10/02 05:20:44;;;;;;;;;0.00;0.00;;;;;16.50;87.90;101040.66;5039443;28;45487;-78
2022/10/02 05:23:28;;;;;;;;;0.00;0.00;;;;;16.41;87.33;101025.84;5093553;27;45339;-77
2022/10/02 05:26:20;;;;;;;;;0.00;0.00;;;;;16.46;87.35;101034.56;5080416;27;45530;-78
2022/10/02 05:28:58;;;;;;;;;1.00;0.00;;;;;16.39;87.16;101030.38;5114997;27;45520;-78
2022/10/02 05:32:03;;;;;;;;;0.25;0.25;;;;;16.44;86.88;101032.88;5102927;27;45504;-78
2022/10/02 05:34:55;;;;;;;;;0.00;0.00;;;;;16.41;87.13;101033.84;5105224;27;45246;-80
2022/10/02 05:37:51;;;;;;;;;1.25;0.00;;;;;16.37;87.21;101034.91;5111821;27;45420;-80
2022/10/02 05:40:30;;;;;;;;;0.25;0.00;;;;;16.01;86.95;100979.31;5081490;28;45441;-81
2022/10/02 05:43:21;;;;;;;;;1.00;0.00;;;;;16.30;87.39;101047.56;5094186;27;46460;-81
2022/10/02 05:45:53;;;;;;;;;0.00;0.00;;;;;16.29;87.18;101037.84;5118071;27;45512;-81
2022/10/02 05:48:42;;;;;;;;;0.00;0.00;;;;;15.91;87.33;100981.47;5098166;27;45443;-78
2022/10/02 05:51:35;;;;;;;;;0.00;0.00;;;;;16.27;87.17;101041.50;5097996;27;45420;-79
2022/10/02 05:54:28;;;;;;;;;1.00;0.00;;;;;16.21;87.35;101041.72;5098325;27;45498;-78
2022/10/02 05:57:04;;;;;;;;;0.00;0.00;;;;;16.24;87.34;101053.13;5035014;28;45583;-79
2022/10/02 05:59:44;;;;;;;;;0.00;0.00;;;;;16.24;87.39;101053.13;5042588;28;45410;-79
2022/10/02 06:02:37;;;;;;;;;0.00;0.00;;;;;15.84;87.31;101009.25;5044629;28;45420;-79
2022/10/02 06:05:16;;;;;;;;;0.00;0.00;;;;;16.32;87.09;101039.53;5044518;28;45611;-79
2022/10/02 06:07:46;;;;;;;;;0.00;0.00;;;;;16.87;84.93;101053.50;5054308;28;45466;-79
2022/10/02 06:10:18;;;;;;;;;0.00;0.00;;;;;17.50;82.85;101067.94;5051958;28;45526;-79
2022/10/02 06:12:57;;;;;;;;;0.00;0.00;;;;;17.98;79.34;101044.59;5034235;28;45467;-78
2022/10/02 06:15:48;;;;;;;;;0.00;0.00;;;;;18.41;77.36;101051.56;5031467;28;45564;-78
2022/10/02 06:18:28;;;;;;;;;0.00;0.00;;;;;18.03;76.97;101014.03;5032108;28;45605;-78
2022/10/02 06:21:35;;;;;;;;;0.00;0.00;;;;;18.03;77.55;101058.63;5033547;28;45472;-77
2022/10/02 06:24:11;;;;;;;;;0.00;0.00;;;;;18.03;77.69;101051.47;4940618;28;45546;-77
2022/10/02 06:27:14;;;;;;;;;0.00;0.00;;;;;18.08;78.18;101053.94;5031470;28;45550;-77
2022/10/02 06:29:47;;;;;;;;;1.00;0.00;;;;;18.72;75.82;101041.25;5033788;28;45322;-82
2022/10/02 06:32:36;;;;;;;;;0.00;0.00;;;;;19.35;73.07;101033.75;5034120;28;45554;-79
2022/10/02 06:35:10;;;;;;;;;0.00;0.00;;;;;19.35;72.42;101047.16;5091376;27;45318;-78
2022/10/02 06:37:50;;;;;;;;;0.00;0.00;;;;;19.51;71.26;100982.97;5097054;27;46160;-78
2022/10/02 06:40:41;;;;;;;;;0.00;0.00;;;;;20.63;68.81;101055.81;5096387;27;45398;-80
2022/10/02 06:43:39;;;;;;;;;0.00;0.00;;;;;21.51;65.36;101042.00;5096627;27;45338;-79
2022/10/02 06:46:29;;;;;;;;;0.75;0.75;;;;;21.93;62.99;101046.66;5084274;27;45452;-79
2022/10/02 06:49:18;;;;;;;;;2.00;0.00;;;;;21.83;62.98;101030.22;5097538;27;46230;-79
2022/10/02 06:51:56;;;;;;;;;1.50;1.00;;;;;21.57;63.12;101030.88;5097943;27;45500;-81
2022/10/02 06:54:34;;;;;;;;;0.00;0.00;;;;;21.29;64.01;101048.59;5095194;27;45503;-79
2022/10/02 06:57:18;;;;;;;;;0.00;0.00;;;;;20.94;65.12;101048.78;5096626;27;45629;-78
2022/10/02 06:59:55;;;;;;;;;0.00;0.00;;;;;20.66;66.37;101062.88;5099583;27;45534;-79
2022/10/02 07:02:45;;;;;;;;;1.00;1.00;;;;;20.42;67.09;101064.09;5097705;27;45322;-79
2022/10/02 07:05:25;;;;;;;;;0.00;0.00;;;;;20.21;67.87;101051.81;5096796;27;45563;-80
2022/10/02 07:08:05;;;;;;;;;0.00;0.00;;;;;20.03;68.41;101054.50;5079564;27;45585;-80
2022/10/02 07:11:04;;;;;;;;;0.25;0.25;;;;;19.96;69.10;101062.97;5115536;27;45426;-79
2022/10/02 07:13:52;;;;;;;;;0.00;0.00;;;;;19.69;70.04;101056.22;5098589;27;45515;-79
2022/10/02 07:16:23;;;;;;;;;0.00;0.00;;;;;19.53;70.32;101047.22;5097119;27;45556;-80
2022/10/02 07:19:12;;;;;;;;;0.00;0.00;;;;;19.13;70.46;100984.88;5097121;27;45357;-78
2022/10/02 07:21:49;;;;;;;;;0.00;0.00;;;;;19.56;70.51;101041.69;5096826;27;46371;-79
2022/10/02 07:24:24;;;;;;;;;0.00;0.00;;;;;19.67;70.32;101043.81;5096595;27;45696;-79
2022/10/02 07:27:16;;;;;;;;;0.00;0.00;;;;;19.87;69.50;101040.16;5081282;27;45316;-80
2022/10/02 07:29:44;;;;;;;;;0.00;0.00;;;;;20.22;67.72;101043.69;5084966;27;45546;-80
2022/10/02 07:32:15;;;;;;;;;0.00;0.00;;;;;20.37;67.09;101044.66;5097549;27;46214;-79
2022/10/02 07:34:57;;;;;;;;;1.00;0.00;;;;;20.39;66.55;101048.16;5100132;27;45678;-79
2022/10/02 07:37:43;;;;;;;;;0.00;0.00;;;;;20.45;66.24;101056.81;5096406;27;45453;-79
2022/10/02 07:40:30;;;;;;;;;0.00;0.00;;;;;20.49;65.62;101061.94;5096402;27;45343;-78
2022/10/02 07:43:05;;;;;;;;;0.00;0.00;;;;;20.48;65.55;101056.66;5096456;27;45631;-79
2022/10/02 07:45:40;;;;;;;;;0.00;0.00;;;;;20.38;65.59;101057.16;5111601;27;45778;-80
2022/10/02 07:48:08;;;;;;;;;0.00;0.00;;;;;20.50;65.42;101049.41;5095484;27;45406;-79
2022/10/02 07:51:45;;;;;;;;;0.00;0.00;;;;;20.58;64.65;101058.75;5096234;27;45629;-80
2022/10/02 07:54:20;;;;;;;;;0.00;0.00;;;;;20.47;64.68;101060.31;5096498;27;46093;-79
2022/10/02 07:56:48;;;;;;;;;0.00;0.00;;;;;20.41;64.50;101065.03;5095597;27;45507;-80
2022/10/02 07:59:17;;;;;;;;;0.00;0.00;;;;;20.54;64.33;101053.63;5098019;27;45346;-80
2022/10/02 08:01:45;;;;;;;;;0.25;0.25;;;;;20.78;64.04;101078.31;5078668;27;45311;-80
2022/10/02 08:04:17;;;;;;;;;1.00;1.00;;;;;21.07;63.88;101071.34;5076242;28;45441;-79
2022/10/02 08:06:46;;;;;;;;;0.00;0.00;;;;;21.64;62.26;101083.38;5057867;28;45827;-80
2022/10/02 08:09:18;;;;;;;;;0.00;0.00;;;;;21.93;61.17;101087.00;5075793;28;45397;-79
2022/10/02 08:12:11;;;;;;;;;1.00;0.25;;;;;21.81;60.46;101071.59;5083988;27;45500;-79
2022/10/02 08:14:40;;;;;;;;;1.25;0.25;;;;;21.71;60.42;101098.19;5095709;27;45436;-80
2022/10/02 08:17:34;;;;;;;;;2.00;1.00;;;;;21.37;61.29;101086.66;5077674;27;45397;-79
2022/10/02 08:20:29;;;;;;;;;1.25;1.00;;;;;21.17;61.57;101081.56;5089024;27;45475;-80
2022/10/02 08:23:19;;;;;;;;;0.00;0.00;;;;;20.86;62.58;101091.31;5092557;27;45754;-79
2022/10/02 08:26:07;;;;;;;;;0.00;0.00;;;;;20.75;62.90;101098.13;5095696;27;45553;-79
2022/10/02 08:28:56;;;;;;;;;2.00;1.00;;;;;20.63;63.14;101088.03;5103038;27;45310;-80
2022/10/02 08:31:22;;;;;;;;;1.75;0.25;;;;;20.44;63.71;101082.81;5090038;27;45450;-81
2022/10/02 08:33:47;;;;;;;;;1.00;1.00;;;;;20.32;64.04;101087.00;5089784;27;45607;-81
2022/10/02 08:36:27;;;;;;;;;1.00;1.00;;;;;20.20;64.63;101095.69;5087191;27;45559;-82
2022/10/02 08:39:04;;;;;;;;;3.25;1.00;;;;;20.09;65.13;101088.22;5103928;27;44820;-79
2022/10/02 08:41:42;;;;;;;;;2.00;2.00;;;;;20.10;65.37;101089.06;5090477;27;45466;-79
2022/10/02 08:44:30;;;;;;;;;1.00;1.00;;;;;20.08;65.75;101094.50;5084923;27;45497;-81
2022/10/02 08:47:33;;;;;;;;;0.75;0.75;;;;;20.18;65.38;101097.59;5088208;27;46072;-79
2022/10/02 08:50:33;;;;;;;;;2.00;1.00;;;;;20.24;65.17;101081.19;5097562;27;45548;-83
2022/10/02 08:53:33;;;;;;;;;1.00;1.00;;;;;20.19;64.71;101076.06;5056361;27;45468;-79
2022/10/02 08:56:17;;;;;;;;;1.00;1.00;;;;;20.31;64.96;101098.66;5087999;27;45396;-78
2022/10/02 08:58:42;;;;;;;;;1.00;1.00;;;;;20.20;65.48;101109.13;5078076;28;45481;-80
2022/10/02 09:01:23;;;;;;;;;2.00;1.00;;;;;20.21;66.10;101113.53;5091890;27;45412;-83
2022/10/02 09:04:08;;;;;;;;;1.50;1.00;;;;;20.26;65.95;101105.25;5107600;27;45412;-82
2022/10/02 09:07:12;;;;;;;;;2.00;2.00;;;;;19.92;65.76;101075.66;5104533;27;45410;-84
2022/10/02 09:10:08;;;;;;;;;1.25;1.00;;;;;19.97;66.18;101105.78;5095128;27;46284;-81
2022/10/02 09:12:36;;;;;;;;;2.00;1.75;;;;;19.95;66.01;101107.69;5092272;27;45518;-82
2022/10/02 09:15:21;;;;;;;;;1.00;1.00;;;;;20.00;66.41;101113.69;5083943;27;45429;-82
2022/10/02 09:18:36;;;;;;;;;1.00;1.00;;;;;19.91;66.82;101100.75;5089864;27;45423;-83
2022/10/02 09:21:14;;;;;;;;;1.00;1.00;;;;;19.96;66.74;101098.69;5008490;28;45615;-82
2022/10/02 09:24:06;;;;;;;;;0.00;0.00;;;;;19.91;66.86;101095.38;5006257;28;45463;-82
2022/10/02 09:26:46;;;;;;;;;1.00;1.00;;;;;19.90;66.96;101104.38;4989871;28;45550;-82
2022/10/02 09:29:12;;;;;;;;;1.00;1.00;;;;;19.83;66.96;101097.56;5004550;28;45474;-83
2022/10/02 09:31:56;;;;;;;;;1.00;0.00;;;;;19.91;66.98;101094.53;5006927;28;46336;-83
2022/10/02 09:34:57;;;;;;;;;3.50;1.75;;;;;19.98;66.85;101091.44;5004782;28;45460;-82
2022/10/02 09:37:51;;;;;;;;;1.25;1.00;;;;;19.88;66.76;101080.31;4983717;28;45478;-82
2022/10/02 09:40:32;;;;;;;;;1.75;1.00;;;;;20.04;67.18;101095.59;4995027;28;45618;-82
2022/10/02 09:43:20;;;;;;;;;0.50;0.50;;;;;20.13;66.82;101100.50;4998781;28;45431;-82
2022/10/02 09:45:55;;;;;;;;;0.00;0.00;;;;;20.17;66.53;101098.53;4999466;28;45623;-82
2022/10/02 09:48:32;;;;;;;;;2.00;0.00;;;;;20.15;66.44;101093.25;5000538;28;45660;-83
2022/10/02 09:51:35;;;;;;;;;0.25;0.25;;;;;20.09;66.85;101082.84;5000183;28;45420;-83
2022/10/02 09:54:28;;;;;;;;;0.25;0.00;;;;;20.27;66.26;101098.91;4981144;28;47004;-83
2022/10/02 09:57:10;;;;;;;;;0.00;0.00;;;;;20.31;66.20;101096.00;5019069;27;45499;-83
2022/10/02 10:00:17;;;;;;;;;1.00;1.00;;;;;20.36;66.18;101112.72;5088366;27;45536;-82
2022/10/02 10:03:21;;;;;;;;;0.00;0.00;;;;;20.54;65.66;101094.78;5009874;28;45443;-82
2022/10/02 10:06:14;;;;;;;;;1.00;1.00;;;;;20.73;64.88;101110.78;5009490;28;45474;-83
2022/10/02 10:08:57;;;;;;;;;1.00;0.00;;;;;20.91;64.23;101113.44;5008690;28;45586;-82
2022/10/02 10:11:46;;;;;;;;;1.75;1.00;;;;;21.00;63.96;101107.56;5013980;28;45516;-82
2022/10/02 10:14:36;;;;;;;;;0.50;0.50;;;;;21.17;63.83;101098.53;5014348;28;45365;-83
2022/10/02 10:17:37;;;;;;;;;1.00;1.00;;;;;21.02;63.52;101041.16;5012389;28;45619;-82
2022/10/02 10:20:21;;;;;;;;;2.00;0.00;;;;;21.47;62.27;101098.63;5013932;28;45438;-82
2022/10/02 10:23:20;;;;;;;;;4.00;1.50;;;;;21.67;61.93;101107.41;5007520;28;45447;-83
2022/10/02 10:25:49;;;;;;;;;1.00;1.00;;;;;21.77;61.82;101103.22;5012716;28;45475;-83
2022/10/02 10:28:36;;;;;;;;;0.75;0.75;;;;;21.68;61.41;101111.78;5020919;28;46163;-83
2022/10/02 10:31:13;;;;;;;;;0.00;0.00;;;;;21.60;61.47;101111.38;5019303;28;45491;-82
2022/10/02 10:33:54;;;;;;;;;1.00;1.00;;;;;21.60;61.43;101106.88;5059165;27;45492;-82
2022/10/02 10:39:47;;;;;;;;;0.25;0.25;;;;;21.95;60.06;101095.00;5094774;27;45722;-82
2022/10/02 10:42:40;;;;;;;;;0.00;0.00;;;;;21.87;59.66;101078.47;5097435;27;45481;-83
2022/10/02 10:45:45;;;;;;;;;0.00;0.00;;;;;22.12;59.14;101105.63;5099676;27;45532;-82
2022/10/02 10:48:46;;;;;;;;;0.00;0.00;;;;;22.22;58.92;101097.00;5089318;27;45339;-82
2022/10/02 10:51:31;;;;;;;;;0.00;0.00;;;;;22.28;59.11;101097.47;5012099;28;46437;-84
2022/10/02 10:54:14;;;;;;;;;1.00;1.00;;;;;22.21;58.55;101089.88;5014836;28;45575;-89
2022/10/02 10:56:45;;;;;;;;;1.25;1.00;;;;;21.98;58.64;101094.81;4999212;28;45518;-82
2022/10/02 10:59:45;;;;;;;;;1.25;0.00;;;;;21.87;58.90;101103.53;5017978;28;45475;-83
2022/10/02 11:02:52;;;;;;;;;0.00;0.00;;;;;21.58;58.89;101071.13;5020477;28;45200;-81
2022/10/02 11:05:54;;;;;;;;;0.00;0.00;;;;;21.57;59.29;101095.44;5026011;28;45563;-83
2022/10/02 11:09:02;;;;;;;;;2.00;1.00;;;;;21.34;59.43;101089.53;5018077;28;45462;-82
2022/10/02 11:12:13;;;;;;;;;1.00;1.00;;;;;21.33;59.92;101098.53;4935116;28;45714;-83
2022/10/02 11:14:40;;;;;;;;;0.00;0.00;;;;;21.28;60.46;101098.78;4933406;28;46796;-82
2022/10/02 11:17:40;;;;;;;;;0.00;0.00;;;;;21.38;60.22;101101.84;4939076;28;45447;-82
2022/10/02 11:20:06;;;;;;;;;0.50;0.50;;;;;21.54;59.81;101096.47;4907878;28;45524;-82
2022/10/02 11:22:52;;;;;;;;;0.00;0.00;;;;;21.56;59.61;101093.69;4936953;28;45438;-82
2022/10/02 11:25:32;;;;;;;;;0.00;0.00;;;;;21.52;59.45;101089.47;4944736;28;48434;-81
2022/10/02 11:28:35;;;;;;;;;0.50;0.50;;;;;21.41;59.87;101101.66;4947243;28;45478;-83
2022/10/02 11:31:18;;;;;;;;;2.25;1.00;;;;;21.22;60.25;101099.13;4997751;28;45479;-82
2022/10/02 11:34:27;;;;;;;;;0.50;0.50;;;;;21.12;60.66;101096.13;4995433;28;45347;-83
2022/10/02 11:37:11;;;;;;;;;4.50;1.00;;;;;20.97;61.50;101107.72;4999257;28;46461;-82
2022/10/02 11:39:36;;;;;;;;;1.00;1.00;;;;;20.98;61.36;101103.22;5004136;28;45678;-81
2022/10/02 11:42:21;;;;;;;;;1.00;1.00;;;;;21.00;61.55;101095.91;4984556;28;45401;-82
2022/10/02 11:45:07;;;;;;;;;0.50;0.50;;;;;21.03;61.47;101106.50;4994373;28;45394;-82
2022/10/02 11:47:48;;;;;;;;;2.25;0.50;;;;;20.99;61.35;101097.75;5017353;27;46220;-83
2022/10/02 11:50:46;;;;;;;;;2.00;2.00;;;;;20.99;61.36;101105.81;5102525;27;45378;-82
2022/10/02 11:53:21;;;;;;;;;0.50;0.50;;;;;20.89;61.74;101116.22;5069030;27;45420;-83
2022/10/02 11:56:23;;;;;;;;;0.00;0.00;;;;;20.75;63.85;101116.94;5087695;27;45478;-82
2022/10/02 11:59:00;;;;;;;;;0.50;0.50;;;;;20.65;66.02;101145.25;5085834;27;45460;-81
2022/10/02 12:02:04;;;;;;;;;0.50;0.50;;;;;20.51;69.03;101137.91;5092530;27;45450;-82
2022/10/02 12:04:32;;;;;;;;;0.00;0.00;;;;;20.37;70.55;101145.81;5017602;28;45480;-82
2022/10/02 12:07:18;;;;;;;;;1.25;1.25;;;;;20.24;71.40;101110.69;5014794;28;45656;-80
2022/10/02 12:10:04;;;;;;;;;1.00;1.00;;;;;20.52;71.71;101142.31;5011631;28;45440;-81
2022/10/02 12:12:50;;;;;;;;;1.00;1.00;;;;;20.64;71.64;101135.44;5012043;28;45769;-83
2022/10/02 12:15:32;;;;;;;;;1.00;1.00;;;;;20.91;71.54;101134.94;5012259;28;45380;-81
2022/10/02 12:18:15;;;;;;;;;0.75;0.50;;;;;21.21;70.30;101131.47;5012130;28;45543;-80
2022/10/02 12:27:08;;;;;;;;;1.00;1.00;;;;;21.52;67.45;101103.75;5011122;28;45639;-82
2022/10/02 12:30:05;;;;;;;;;0.50;0.50;;;;;21.40;67.22;101067.66;5013282;28;45623;-82
2022/10/02 12:32:35;;;;;;;;;4.00;1.00;;;;;21.65;67.24;101120.94;5026587;28;45636;-82
2022/10/02 12:35:38;;;;;;;;;0.25;0.25;;;;;21.31;67.94;101095.06;5011910;28;45574;-81
2022/10/02 12:38:25;;;;;;;;;0.25;0.25;;;;;21.38;69.13;101133.22;4945570;28;45526;-82
2022/10/02 12:41:06;;;;;;;;;1.75;1.00;;;;;21.26;69.92;101127.59;5000125;28;45651;-82
2022/10/02 12:43:37;;;;;;;;;0.00;0.00;;;;;21.20;70.36;101121.72;5019550;28;45506;-82